Time;durP1;ratioP1;P1;durP2;ratioP2;P2;SDS_P1;SDS_P2;PMS_P1;PMS_P2;Temp;Humidity;BMP_temperature;BMP_pressure;BME280_temperature;BME280_humidity;BME280_pressure;Samples;Min_cycle;Max_cycle;Signal;HPM_P1;HPM_P2
2022/10/19 00:00:50;;;;;;;1.20;1.17;;;16.00;99.90;;;;;;5084490;28;20203;-69
2022/10/19 00:03:17;;;;;;;1.23;1.00;;;15.90;99.90;;;;;;5084576;28;20838;-69
2022/10/19 00:05:44;;;;;;;1.33;1.23;;;15.90;99.90;;;;;;5085786;28;20291;-69
2022/10/19 00:08:12;;;;;;;1.13;1.03;;;15.90;99.90;;;;;;5083615;28;20310;-68
2022/10/19 00:10:41;;;;;;;0.80;0.80;;;15.90;99.90;;;;;;5085071;28;20202;-70
2022/10/19 00:13:08;;;;;;;2.03;1.17;;;15.90;99.90;;;;;;5077455;28;20208;-70
2022/10/19 00:15:39;;;;;;;1.40;1.30;;;15.80;99.90;;;;;;5086273;28;20218;-69
2022/10/19 00:18:06;;;;;;;2.70;1.20;;;15.70;99.90;;;;;;5084620;28;20284;-69
2022/10/19 00:20:33;;;;;;;1.10;1.10;;;15.70;99.90;;;;;;5088767;28;20205;-69
2022/10/19 00:23:00;;;;;;;1.33;1.10;;;15.60;99.90;;;;;;5087241;28;20627;-68
2022/10/19 00:25:28;;;;;;;1.20;1.10;;;15.60;99.90;;;;;;5080263;28;20286;-69
2022/10/19 00:27:55;;;;;;;1.40;1.30;;;15.50;99.90;;;;;;5084707;28;20306;-69
2022/10/19 00:30:22;;;;;;;1.37;1.23;;;15.40;99.90;;;;;;5092663;28;20267;-70
2022/10/19 00:32:49;;;;;;;1.30;1.20;;;15.40;99.90;;;;;;5090261;28;20275;-69
2022/10/19 00:35:16;;;;;;;1.30;1.20;;;15.40;99.90;;;;;;5093767;28;20249;-69
2022/10/19 00:37:43;;;;;;;1.03;1.03;;;15.40;99.90;;;;;;5080131;28;20298;-69
2022/10/19 00:40:10;;;;;;;1.20;1.10;;;15.40;99.90;;;;;;5090410;28;20279;-69
2022/10/19 00:42:38;;;;;;;1.30;1.20;;;15.40;99.90;;;;;;5085704;28;20295;-70
2022/10/19 00:45:12;;;;;;;1.20;1.20;;;15.40;99.90;;;;;;5085391;28;20291;-70
2022/10/19 00:47:39;;;;;;;1.23;1.20;;;15.40;99.90;;;;;;5087201;28;20309;-69
2022/10/19 00:50:07;;;;;;;1.40;1.20;;;15.40;99.90;;;;;;5087887;28;20214;-69
2022/10/19 00:52:34;;;;;;;1.80;1.17;;;15.30;99.90;;;;;;5084970;28;20257;-70
2022/10/19 00:55:02;;;;;;;1.30;1.30;;;15.30;99.90;;;;;;5074350;28;20213;-70
2022/10/19 00:57:31;;;;;;;1.30;1.10;;;15.30;99.90;;;;;;5080718;28;20234;-70
2022/10/19 01:00:02;;;;;;;1.20;1.20;;;15.30;99.90;;;;;;5087860;28;20232;-70
2022/10/19 01:02:29;;;;;;;1.03;0.90;;;15.40;99.90;;;;;;5083884;28;20220;-69
2022/10/19 01:04:56;;;;;;;1.30;1.20;;;15.40;99.90;;;;;;5089173;28;20203;-70
2022/10/19 01:07:25;;;;;;;1.00;1.00;;;15.40;99.90;;;;;;5081344;28;20310;-70
2022/10/19 01:09:52;;;;;;;1.20;1.10;;;15.50;99.90;;;;;;5079611;28;20214;-71
2022/10/19 01:12:42;;;;;;;1.03;1.03;;;15.50;99.90;;;;;;5079735;28;20657;-70
2022/10/19 01:15:20;;;;;;;1.00;1.00;;;15.50;99.90;;;;;;5081302;28;20291;-70
2022/10/19 01:17:57;;;;;;;1.27;1.17;;;15.70;99.90;;;;;;5083211;28;20257;-69
2022/10/19 01:21:15;;;;;;;1.10;1.10;;;15.50;99.90;;;;;;5071730;28;20307;-70
2022/10/19 01:24:22;;;;;;;1.30;1.20;;;15.50;99.90;;;;;;5002033;28;20288;-70
2022/10/19 01:27:17;;;;;;;1.23;1.13;;;15.50;99.90;;;;;;5078468;28;20600;-71
2022/10/19 01:30:06;;;;;;;1.17;1.17;;;15.50;99.90;;;;;;5076365;28;20282;-69
2022/10/19 01:32:44;;;;;;;1.30;1.20;;;15.40;99.90;;;;;;5073099;28;20207;-70
2022/10/19 01:35:18;;;;;;;1.17;1.17;;;15.50;99.90;;;;;;5084701;28;20199;-70
2022/10/19 01:37:49;;;;;;;1.40;1.30;;;15.40;99.90;;;;;;5087074;28;20230;-70
2022/10/19 01:40:25;;;;;;;1.00;1.00;;;15.40;99.90;;;;;;5086908;28;20195;-69
2022/10/19 01:43:00;;;;;;;1.30;1.20;;;15.40;99.90;;;;;;5083109;28;20198;-68
2022/10/19 01:45:36;;;;;;;1.40;1.30;;;15.40;99.90;;;;;;5076141;28;20191;-70
2022/10/19 01:48:07;;;;;;;1.10;1.10;;;15.40;99.90;;;;;;5082943;28;20236;-69
2022/10/19 01:50:37;;;;;;;0.93;0.93;;;15.30;99.90;;;;;;5080826;28;20238;-70
2022/10/19 01:53:06;;;;;;;1.10;1.10;;;15.30;99.90;;;;;;5080424;28;20290;-69
2022/10/19 01:55:34;;;;;;;1.23;1.17;;;15.30;99.90;;;;;;5080251;28;20318;-70
2022/10/19 01:58:04;;;;;;;1.10;1.10;;;15.20;99.90;;;;;;5081527;28;20223;-69
2022/10/19 02:00:37;;;;;;;1.07;1.07;;;15.20;99.90;;;;;;5086787;28;20195;-70
2022/10/19 02:03:05;;;;;;;1.10;1.10;;;15.20;99.90;;;;;;5082195;28;20209;-70
2022/10/19 02:05:35;;;;;;;1.50;1.40;;;15.00;99.90;;;;;;5091441;28;20205;-71
2022/10/19 02:08:06;;;;;;;1.47;1.33;;;14.90;99.90;;;;;;5082657;28;20287;-70
2022/10/19 02:10:37;;;;;;;1.23;1.13;;;14.90;99.90;;;;;;5085611;28;20286;-70
2022/10/19 02:13:06;;;;;;;1.17;1.17;;;14.90;99.90;;;;;;5085973;28;20286;-70
2022/10/19 02:15:38;;;;;;;0.90;0.90;;;14.80;99.90;;;;;;5090525;28;20238;-69
2022/10/19 02:18:06;;;;;;;1.47;1.10;;;14.80;99.90;;;;;;5084000;28;20219;-69
2022/10/19 02:20:35;;;;;;;1.37;1.20;;;14.90;99.90;;;;;;5085772;28;20206;-69
2022/10/19 02:23:04;;;;;;;1.27;1.20;;;14.80;99.90;;;;;;5085369;28;20202;-69
2022/10/19 02:25:31;;;;;;;1.17;1.08;;;14.80;99.90;;;;;;5093323;28;20194;-69
2022/10/19 02:28:00;;;;;;;1.20;1.10;;;14.80;99.90;;;;;;5085304;28;20295;-69
2022/10/19 02:30:27;;;;;;;1.43;1.20;;;14.70;99.90;;;;;;5090443;28;20202;-70
2022/10/19 02:32:56;;;;;;;1.30;1.20;;;14.70;99.90;;;;;;5096501;28;20203;-69
2022/10/19 02:35:23;;;;;;;1.30;1.20;;;14.50;99.90;;;;;;5095054;28;20237;-70
2022/10/19 02:37:50;;;;;;;1.30;1.30;;;14.50;99.90;;;;;;5085542;28;20692;-69
2022/10/19 02:40:17;;;;;;;1.40;1.30;;;14.50;99.90;;;;;;5092272;28;20599;-70
2022/10/19 02:42:49;;;;;;;1.30;1.20;;;14.50;99.90;;;;;;5086524;28;20286;-70
2022/10/19 02:45:21;;;;;;;1.13;1.10;;;14.50;99.90;;;;;;5091855;28;20282;-70
2022/10/19 02:47:52;;;;;;;1.30;1.20;;;14.50;99.90;;;;;;5081106;28;20322;-69
2022/10/19 02:50:21;;;;;;;1.27;1.20;;;14.50;99.90;;;;;;5091800;28;20202;-70
2022/10/19 02:52:48;;;;;;;1.40;1.30;;;14.40;99.90;;;;;;5084432;28;20207;-69
2022/10/19 02:55:15;;;;;;;1.10;1.00;;;14.40;99.90;;;;;;5092626;28;20272;-69
2022/10/19 02:57:42;;;;;;;1.40;1.30;;;14.40;99.90;;;;;;5083773;28;20254;-70
2022/10/19 03:00:10;;;;;;;1.43;1.20;;;14.60;99.90;;;;;;5086540;28;20290;-70
2022/10/19 03:02:37;;;;;;;1.17;1.17;;;14.50;99.90;;;;;;5087656;28;20203;-71
2022/10/19 03:05:04;;;;;;;1.13;1.10;;;14.50;99.90;;;;;;5085643;28;20831;-70
2022/10/19 03:07:32;;;;;;;1.67;1.30;;;14.50;99.90;;;;;;5090270;28;20624;-71
2022/10/19 03:09:59;;;;;;;1.70;1.30;;;14.50;99.90;;;;;;5084659;28;20234;-69
2022/10/19 03:12:26;;;;;;;1.00;1.00;;;14.50;99.90;;;;;;5090858;28;20205;-69
2022/10/19 03:14:53;;;;;;;1.30;1.20;;;14.40;99.90;;;;;;5083449;28;20199;-70
2022/10/19 03:17:19;;;;;;;1.40;1.30;;;14.40;99.90;;;;;;5071899;28;20602;-69
2022/10/19 03:19:46;;;;;;;1.07;1.00;;;14.50;99.90;;;;;;5087444;28;20211;-69
2022/10/19 03:22:14;;;;;;;1.23;1.13;;;14.50;99.90;;;;;;5086086;28;20245;-71
2022/10/19 03:24:42;;;;;;;1.00;1.00;;;14.50;99.90;;;;;;5086641;28;20203;-69
2022/10/19 03:27:09;;;;;;;1.17;1.07;;;14.50;99.90;;;;;;5085137;28;20250;-69
2022/10/19 03:29:36;;;;;;;1.10;1.10;;;14.50;99.90;;;;;;5087226;28;20649;-70
2022/10/19 03:32:03;;;;;;;1.97;1.40;;;14.50;99.90;;;;;;5084432;28;20209;-70
2022/10/19 03:34:29;;;;;;;1.13;1.13;;;14.60;99.90;;;;;;5085946;28;20289;-70
2022/10/19 03:36:58;;;;;;;1.00;1.00;;;14.50;99.90;;;;;;5085677;28;20250;-70
2022/10/19 03:39:24;;;;;;;0.90;0.90;;;14.50;99.90;;;;;;5086538;28;20234;-70
2022/10/19 03:41:53;;;;;;;0.90;0.90;;;14.50;99.90;;;;;;5083891;28;20293;-69
2022/10/19 03:44:20;;;;;;;1.00;1.00;;;14.50;99.90;;;;;;5073517;28;20265;-70
2022/10/19 03:46:46;;;;;;;1.20;1.20;;;14.50;99.90;;;;;;5085625;28;20303;-69
2022/10/19 03:49:13;;;;;;;1.10;1.10;;;14.50;99.90;;;;;;5084711;28;20214;-70
2022/10/19 03:51:40;;;;;;;1.33;1.33;;;14.50;99.90;;;;;;5085744;28;20222;-70
2022/10/19 03:54:11;;;;;;;1.00;1.00;;;14.50;99.90;;;;;;5085218;28;20589;-70
2022/10/19 03:56:38;;;;;;;1.17;1.10;;;14.40;99.90;;;;;;5085943;28;20214;-70
2022/10/19 03:59:07;;;;;;;1.40;1.30;;;14.30;99.90;;;;;;5086128;28;20229;-70
2022/10/19 04:01:36;;;;;;;1.00;1.00;;;14.20;99.90;;;;;;5090812;28;20286;-70
2022/10/19 04:04:06;;;;;;;1.30;1.30;;;14.10;99.90;;;;;;5088038;28;20199;-70
2022/10/19 04:06:35;;;;;;;1.00;1.00;;;14.20;99.90;;;;;;5090560;28;20724;-69
2022/10/19 04:09:03;;;;;;;1.20;1.20;;;14.20;99.90;;;;;;5085158;28;20222;-70
2022/10/19 04:11:32;;;;;;;1.00;1.00;;;14.30;99.90;;;;;;5085928;28;20195;-70
2022/10/19 04:13:59;;;;;;;1.30;1.20;;;14.40;99.90;;;;;;5084803;28;20284;-70
2022/10/19 04:16:30;;;;;;;1.20;1.20;;;14.30;99.90;;;;;;5082664;28;20318;-70
2022/10/19 04:18:57;;;;;;;2.47;1.80;;;14.40;99.90;;;;;;5089378;28;20276;-70
2022/10/19 04:21:40;;;;;;;1.60;1.50;;;14.30;99.90;;;;;;5082954;28;20207;-69
2022/10/19 04:24:11;;;;;;;1.47;1.43;;;14.30;99.90;;;;;;5083130;28;20234;-69
2022/10/19 04:26:40;;;;;;;1.50;1.40;;;14.40;99.90;;;;;;5083435;28;20288;-70
2022/10/19 04:29:15;;;;;;;1.40;1.40;;;14.30;99.90;;;;;;5075724;28;20252;-70
2022/10/19 04:31:58;;;;;;;1.30;1.30;;;14.30;99.90;;;;;;5080780;28;20294;-68
2022/10/19 04:34:28;;;;;;;1.40;1.40;;;14.10;99.90;;;;;;5078088;28;20195;-69
2022/10/19 04:36:58;;;;;;;1.60;1.50;;;14.10;99.90;;;;;;5088745;28;20215;-71
2022/10/19 04:39:28;;;;;;;1.47;1.37;;;14.10;99.90;;;;;;5088835;28;20290;-71
2022/10/19 04:42:03;;;;;;;1.60;1.50;;;14.10;99.90;;;;;;5085576;28;20579;-70
2022/10/19 04:44:37;;;;;;;1.47;1.37;;;14.00;99.90;;;;;;5082440;28;20201;-69
2022/10/19 04:47:09;;;;;;;1.57;1.40;;;14.00;99.90;;;;;;5078620;28;20226;-68
2022/10/19 04:49:42;;;;;;;1.20;1.20;;;13.90;99.90;;;;;;5086329;28;20262;-70
2022/10/19 04:52:12;;;;;;;1.50;1.50;;;13.90;99.90;;;;;;5084650;28;20580;-69
2022/10/19 04:54:48;;;;;;;1.20;1.20;;;14.00;99.90;;;;;;5086003;28;20195;-71
2022/10/19 04:57:32;;;;;;;1.50;1.40;;;14.00;99.90;;;;;;5082555;28;20285;-70
2022/10/19 05:00:04;;;;;;;2.20;2.10;;;14.00;99.90;;;;;;5079545;28;20206;-69
2022/10/19 05:02:43;;;;;;;1.50;1.40;;;14.00;99.90;;;;;;5081221;28;20199;-69
2022/10/19 05:05:23;;;;;;;1.23;1.23;;;14.00;99.90;;;;;;5066359;28;20281;-70
2022/10/19 05:07:50;;;;;;;1.40;1.40;;;14.10;99.90;;;;;;5077164;28;20280;-70
2022/10/19 05:10:18;;;;;;;1.70;1.60;;;14.00;99.90;;;;;;5085807;28;20202;-69
2022/10/19 05:12:48;;;;;;;1.97;1.87;;;14.10;99.90;;;;;;5081324;28;20245;-70
2022/10/19 05:15:23;;;;;;;2.00;1.90;;;14.10;99.90;;;;;;5090678;28;20205;-69
2022/10/19 05:17:55;;;;;;;2.87;2.57;;;14.10;99.90;;;;;;5083585;28;20680;-71
2022/10/19 05:20:47;;;;;;;2.43;2.23;;;14.10;99.90;;;;;;5065361;28;20199;-67
2022/10/19 05:23:19;;;;;;;2.90;2.67;;;14.10;99.90;;;;;;5082072;28;20652;-68
2022/10/19 05:25:47;;;;;;;2.83;2.63;;;14.10;99.90;;;;;;5083168;28;20582;-70
2022/10/19 05:28:33;;;;;;;7.23;2.70;;;14.10;99.90;;;;;;5081297;28;20241;-69
2022/10/19 05:31:11;;;;;;;2.50;2.30;;;14.10;99.90;;;;;;5087198;28;20230;-70
2022/10/19 05:36:35;;;;;;;2.17;2.07;;;14.00;99.90;;;;;;5071774;28;20694;-69
2022/10/19 05:39:10;;;;;;;2.03;1.90;;;14.10;99.90;;;;;;5079791;28;20234;-71
2022/10/19 05:41:40;;;;;;;4.10;2.67;;;14.10;99.90;;;;;;5086043;28;20290;-71
2022/10/19 05:44:12;;;;;;;3.60;1.80;;;14.20;99.90;;;;;;5082234;28;20695;-70
2022/10/19 05:46:39;;;;;;;2.50;1.80;;;14.20;99.90;;;;;;5084295;28;20195;-69
2022/10/19 05:49:15;;;;;;;2.03;1.93;;;14.20;99.90;;;;;;5082441;28;20226;-69
2022/10/19 05:51:46;;;;;;;1.60;1.57;;;14.30;99.90;;;;;;5083825;28;20225;-71
2022/10/19 05:54:17;;;;;;;1.73;1.60;;;14.30;99.90;;;;;;5085447;28;20199;-71
2022/10/19 05:56:56;;;;;;;1.80;1.70;;;14.30;99.90;;;;;;5085018;28;20215;-70
2022/10/19 05:59:34;;;;;;;1.60;1.60;;;14.40;99.90;;;;;;5076384;28;20203;-73
2022/10/19 06:02:03;;;;;;;1.87;1.60;;;14.40;99.90;;;;;;5083611;28;20191;-71
2022/10/19 06:04:40;;;;;;;1.70;1.60;;;14.40;99.90;;;;;;5085671;28;20199;-71
2022/10/19 06:07:15;;;;;;;1.60;1.50;;;14.40;99.90;;;;;;5090585;28;20195;-72
2022/10/19 06:09:57;;;;;;;1.70;1.60;;;14.30;99.90;;;;;;5090892;28;20256;-71
2022/10/19 06:12:35;;;;;;;1.60;1.50;;;14.30;99.90;;;;;;5078293;28;20285;-72
2022/10/19 06:17:43;;;;;;;1.43;1.40;;;14.50;99.90;;;;;;5072331;28;20221;-71
2022/10/19 06:20:20;;;;;;;3.53;1.50;;;14.50;99.90;;;;;;5082975;28;20219;-72
2022/10/19 06:22:53;;;;;;;2.17;1.97;;;14.60;99.90;;;;;;5085097;28;20241;-71
2022/10/19 06:25:26;;;;;;;1.83;1.73;;;14.60;99.90;;;;;;5084630;28;20203;-72
2022/10/19 06:28:00;;;;;;;1.60;1.50;;;14.70;99.90;;;;;;5080427;28;20226;-70
2022/10/19 06:30:30;;;;;;;2.13;1.63;;;14.80;99.90;;;;;;5076911;28;20198;-71
2022/10/19 06:33:08;;;;;;;1.93;1.83;;;14.70;99.90;;;;;;5075947;28;20290;-68
2022/10/19 06:38:27;;;;;;;1.90;1.80;;;14.70;99.90;;;;;;5071848;28;20312;-72
2022/10/19 06:41:01;;;;;;;2.00;1.90;;;14.70;99.90;;;;;;5083080;28;20243;-70
2022/10/19 06:46:19;;;;;;;1.87;1.77;;;14.70;99.90;;;;;;5082777;28;20211;-70
2022/10/19 06:48:51;;;;;;;2.03;1.90;;;14.80;99.90;;;;;;5080626;28;20758;-71
2022/10/19 06:51:25;;;;;;;4.00;2.20;;;14.70;99.90;;;;;;5091711;28;20203;-71
2022/10/19 06:54:02;;;;;;;3.40;2.20;;;14.60;99.90;;;;;;5086197;28;20210;-71
2022/10/19 06:56:30;;;;;;;2.00;1.90;;;14.70;99.90;;;;;;5084199;28;20209;-71
2022/10/19 06:58:58;;;;;;;2.13;1.97;;;14.60;99.90;;;;;;5077395;28;20243;-70
2022/10/19 07:01:28;;;;;;;1.60;1.50;;;14.70;99.90;;;;;;5074479;28;20281;-70
2022/10/19 07:04:04;;;;;;;1.83;1.73;;;14.70;99.90;;;;;;5075263;28;20287;-73
2022/10/19 07:06:35;;;;;;;2.07;1.87;;;14.70;99.90;;;;;;5082921;28;20195;-70
2022/10/19 07:09:02;;;;;;;1.60;1.50;;;14.80;99.90;;;;;;5078044;28;20215;-71
2022/10/19 07:11:30;;;;;;;2.07;1.87;;;14.80;99.90;;;;;;5079207;28;20211;-70
2022/10/19 07:13:59;;;;;;;3.67;2.40;;;14.90;99.90;;;;;;5079975;28;20587;-70
2022/10/19 07:16:34;;;;;;;2.30;2.20;;;14.90;99.90;;;;;;5077176;28;20237;-69
2022/10/19 07:19:02;;;;;;;2.27;2.00;;;14.90;99.90;;;;;;5078831;28;20231;-71
2022/10/19 07:21:42;;;;;;;2.00;1.90;;;14.90;99.90;;;;;;5082239;28;20246;-70
2022/10/19 07:24:11;;;;;;;2.30;2.10;;;14.90;99.90;;;;;;5077920;28;20304;-69
2022/10/19 07:26:49;;;;;;;3.50;2.63;;;14.90;99.90;;;;;;5077431;28;20313;-70
2022/10/19 07:29:16;;;;;;;4.33;2.47;;;14.90;99.90;;;;;;5074473;28;20285;-71
2022/10/19 07:31:46;;;;;;;4.00;1.93;;;14.90;99.90;;;;;;5079600;28;20599;-72
2022/10/19 07:34:16;;;;;;;2.30;1.90;;;15.00;99.90;;;;;;5078036;28;20202;-71
2022/10/19 07:36:46;;;;;;;2.83;2.50;;;15.00;99.90;;;;;;5079085;28;20229;-71
2022/10/19 07:39:18;;;;;;;1.80;1.70;;;15.10;99.90;;;;;;5079876;28;20316;-71
2022/10/19 07:41:47;;;;;;;2.17;2.00;;;15.00;99.90;;;;;;5077051;28;20211;-72
2022/10/19 07:44:23;;;;;;;1.80;1.70;;;15.10;99.90;;;;;;5075671;28;20585;-70
2022/10/19 07:46:51;;;;;;;2.10;1.90;;;15.10;99.90;;;;;;5074094;28;20211;-69
2022/10/19 07:49:19;;;;;;;2.00;1.90;;;15.10;99.90;;;;;;5078796;28;20207;-73
2022/10/19 07:51:52;;;;;;;2.03;1.93;;;15.10;99.90;;;;;;5073767;28;20211;-70
2022/10/19 07:54:23;;;;;;;2.90;2.07;;;15.20;99.90;;;;;;5077041;28;20238;-71
2022/10/19 07:56:51;;;;;;;3.20;2.37;;;15.30;99.90;;;;;;5079151;28;20233;-71
2022/10/19 07:59:32;;;;;;;2.00;1.90;;;15.40;99.90;;;;;;5070130;28;20217;-70
2022/10/19 08:02:03;;;;;;;1.80;1.70;;;15.40;99.90;;;;;;5069814;28;20218;-70
2022/10/19 08:04:34;;;;;;;1.80;1.70;;;15.60;99.90;;;;;;5072031;28;20199;-72
2022/10/19 08:07:04;;;;;;;2.33;2.13;;;15.60;99.90;;;;;;5069670;28;20572;-70
2022/10/19 08:09:36;;;;;;;2.00;1.90;;;15.60;99.90;;;;;;5067446;28;20269;-70
2022/10/19 08:12:03;;;;;;;2.03;1.93;;;15.60;99.90;;;;;;5068562;28;20717;-70
2022/10/19 08:14:32;;;;;;;4.40;2.80;;;15.70;99.90;;;;;;5063494;28;20195;-72
2022/10/19 08:17:00;;;;;;;2.67;2.47;;;15.60;99.90;;;;;;5072587;28;20207;-69
2022/10/19 08:19:27;;;;;;;7.07;3.53;;;15.60;99.90;;;;;;5074435;28;20307;-70
2022/10/19 08:21:57;;;;;;;3.23;3.03;;;15.60;99.90;;;;;;5081413;28;20196;-71
2022/10/19 08:24:24;;;;;;;3.67;3.40;;;15.60;99.90;;;;;;5086294;28;20199;-70
2022/10/19 08:26:53;;;;;;;2.80;2.60;;;15.60;99.90;;;;;;5082609;28;20235;-70
2022/10/19 08:29:25;;;;;;;2.50;2.40;;;15.70;99.90;;;;;;5073409;28;20237;-71
2022/10/19 08:31:54;;;;;;;1.97;1.87;;;15.80;99.90;;;;;;5073955;28;20234;-71
2022/10/19 08:34:27;;;;;;;2.50;2.30;;;15.90;99.90;;;;;;5074410;28;20631;-72
2022/10/19 08:37:00;;;;;;;2.47;2.37;;;16.00;99.90;;;;;;5076786;28;20206;-69
2022/10/19 08:39:30;;;;;;;2.43;2.33;;;16.00;99.90;;;;;;5075247;28;20225;-71
2022/10/19 08:42:02;;;;;;;2.47;2.37;;;16.10;99.90;;;;;;5071550;28;20231;-71
2022/10/19 08:45:01;;;;;;;2.20;2.10;;;16.00;99.90;;;;;;5077033;28;20211;-71
2022/10/19 08:47:51;;;;;;;2.30;2.10;;;16.20;99.90;;;;;;5075176;28;20309;-70
2022/10/19 08:50:22;;;;;;;1.80;1.70;;;16.10;99.90;;;;;;5083226;28;20198;-73
2022/10/19 08:53:00;;;;;;;1.77;1.67;;;16.00;99.90;;;;;;5073309;28;21268;-70
2022/10/19 08:55:41;;;;;;;2.53;2.33;;;16.10;99.90;;;;;;5073276;28;20198;-72
2022/10/19 08:58:26;;;;;;;2.10;2.00;;;16.00;99.90;;;;;;5073327;28;20245;-68
2022/10/19 09:01:04;;;;;;;1.90;1.80;;;15.90;99.90;;;;;;5080104;28;20720;-70
2022/10/19 09:03:38;;;;;;;2.23;2.03;;;16.00;99.90;;;;;;5082641;28;20202;-68
2022/10/19 09:06:19;;;;;;;5.13;2.20;;;16.00;99.90;;;;;;5080211;28;20207;-69
2022/10/19 09:08:51;;;;;;;2.70;2.60;;;16.10;99.90;;;;;;5074500;28;20360;-70
2022/10/19 09:11:24;;;;;;;2.60;2.43;;;16.10;99.90;;;;;;5070174;28;20199;-68
2022/10/19 09:16:21;;;;;;;2.30;2.20;;;15.90;99.90;;;;;;5069909;28;20203;-62
2022/10/19 09:18:48;;;;;;;2.10;2.00;;;15.80;99.90;;;;;;5072019;28;20781;-62
2022/10/19 09:21:18;;;;;;;2.77;2.57;;;16.00;99.90;;;;;;5069462;28;20215;-62
2022/10/19 09:23:51;;;;;;;2.73;2.53;;;16.10;99.90;;;;;;5057709;28;20599;-62
2022/10/19 09:26:19;;;;;;;2.50;2.30;;;16.00;99.90;;;;;;5057644;28;20199;-62
2022/10/19 09:28:52;;;;;;;2.90;2.70;;;15.90;99.90;;;;;;5069141;28;20200;-62
2022/10/19 09:31:27;;;;;;;2.80;2.60;;;16.00;99.90;;;;;;5052702;28;20203;-63
2022/10/19 09:33:58;;;;;;;2.50;2.30;;;16.10;99.90;;;;;;5057273;28;20615;-62
2022/10/19 09:36:35;;;;;;;2.67;2.57;;;16.10;99.90;;;;;;5054221;28;20225;-62
2022/10/19 09:39:02;;;;;;;2.40;2.30;;;16.10;99.90;;;;;;5055723;28;20265;-62
2022/10/19 09:41:30;;;;;;;2.43;2.33;;;16.10;99.90;;;;;;5055272;28;20203;-63
2022/10/19 09:43:57;;;;;;;2.30;2.20;;;16.10;99.90;;;;;;5055638;28;20228;-62
2022/10/19 09:46:47;;;;;;;2.23;2.13;;;16.10;99.90;;;;;;5055593;28;20220;-62
2022/10/19 09:49:14;;;;;;;2.30;2.20;;;16.20;99.90;;;;;;5047368;28;20224;-62
2022/10/19 09:51:49;;;;;;;2.40;2.30;;;16.20;99.90;;;;;;5054859;28;20214;-62
2022/10/19 09:54:31;;;;;;;2.40;2.20;;;16.20;99.90;;;;;;5055836;28;20203;-62
2022/10/19 09:56:58;;;;;;;2.20;2.10;;;16.20;99.90;;;;;;5055659;28;20204;-62
2022/10/19 09:59:29;;;;;;;2.20;2.10;;;16.30;99.90;;;;;;5055382;28;20220;-64
2022/10/19 10:02:11;;;;;;;2.40;2.30;;;16.30;99.90;;;;;;5054894;28;20211;-63
2022/10/19 10:04:38;;;;;;;2.50;2.40;;;16.40;99.90;;;;;;5055275;28;20675;-63
2022/10/19 10:07:04;;;;;;;2.07;1.97;;;16.40;99.90;;;;;;5055816;28;20211;-61
2022/10/19 10:09:32;;;;;;;2.17;2.00;;;16.50;99.90;;;;;;5064964;28;20192;-62
2022/10/19 10:12:00;;;;;;;2.40;2.30;;;16.60;99.90;;;;;;5071940;28;20280;-63
2022/10/19 10:14:30;;;;;;;2.07;1.97;;;16.70;99.90;;;;;;5060186;28;20239;-63
2022/10/19 10:17:01;;;;;;;2.53;2.43;;;16.70;99.90;;;;;;5055475;28;20235;-61
2022/10/19 10:19:32;;;;;;;2.67;2.47;;;16.80;99.90;;;;;;5055247;28;20224;-62
2022/10/19 10:21:59;;;;;;;2.47;2.37;;;16.80;99.90;;;;;;5060111;28;20200;-63
2022/10/19 10:24:28;;;;;;;2.73;2.63;;;16.90;99.90;;;;;;5055472;28;20233;-63
2022/10/19 10:26:56;;;;;;;2.73;2.60;;;16.90;99.90;;;;;;5055103;28;20562;-63
2022/10/19 10:29:25;;;;;;;2.80;2.70;;;17.00;99.90;;;;;;5044352;28;20543;-63
2022/10/19 10:31:55;;;;;;;2.37;2.27;;;17.10;99.90;;;;;;5050771;28;20294;-62
2022/10/19 10:34:33;;;;;;;2.83;2.60;;;17.10;99.90;;;;;;5053493;28;20631;-62
2022/10/19 10:37:01;;;;;;;2.37;2.27;;;17.20;99.90;;;;;;5054940;28;20207;-62
2022/10/19 10:39:29;;;;;;;3.00;2.80;;;17.20;99.90;;;;;;5055261;28;20220;-63
2022/10/19 10:42:00;;;;;;;2.97;2.77;;;17.30;99.90;;;;;;5056808;28;20570;-62
2022/10/19 10:44:29;;;;;;;2.70;2.60;;;17.30;99.90;;;;;;5046273;28;20195;-62
2022/10/19 10:46:58;;;;;;;2.73;2.63;;;17.40;99.90;;;;;;5054666;28;20203;-62
2022/10/19 10:49:28;;;;;;;2.90;2.70;;;17.50;99.90;;;;;;5054598;28;20207;-62
2022/10/19 10:51:59;;;;;;;2.37;2.27;;;17.60;99.90;;;;;;5045563;28;20208;-63
2022/10/19 10:54:29;;;;;;;2.70;2.60;;;17.60;99.90;;;;;;5053048;28;20549;-62
2022/10/19 10:57:05;;;;;;;2.50;2.40;;;17.70;99.90;;;;;;5048497;28;20235;-63
2022/10/19 10:59:37;;;;;;;2.70;2.60;;;17.60;99.90;;;;;;5048002;28;20234;-62
2022/10/19 11:02:15;;;;;;;2.63;2.53;;;17.60;99.90;;;;;;5048503;28;20261;-62
2022/10/19 11:04:48;;;;;;;2.30;2.20;;;17.80;99.90;;;;;;5054660;28;20214;-62
2022/10/19 11:07:20;;;;;;;2.70;2.60;;;17.90;99.90;;;;;;5054620;28;20716;-64
2022/10/19 11:09:53;;;;;;;2.63;2.53;;;18.10;99.90;;;;;;5054496;28;20200;-62
2022/10/19 11:12:32;;;;;;;2.50;2.40;;;18.20;99.90;;;;;;5057357;28;20723;-62
2022/10/19 11:15:06;;;;;;;2.40;2.30;;;18.10;99.90;;;;;;5057830;28;20681;-64
2022/10/19 11:17:37;;;;;;;2.87;2.73;;;18.10;99.90;;;;;;5054214;28;20472;-62
2022/10/19 11:20:06;;;;;;;2.67;2.57;;;18.20;99.90;;;;;;5054091;28;20715;-62
2022/10/19 11:22:40;;;;;;;2.80;2.70;;;18.30;99.90;;;;;;5048360;28;20578;-62
2022/10/19 11:25:23;;;;;;;3.07;2.90;;;18.30;99.90;;;;;;5044322;28;20291;-61
2022/10/19 11:28:03;;;;;;;3.17;3.07;;;18.30;99.90;;;;;;5049902;28;20254;-61
2022/10/19 11:30:36;;;;;;;2.97;2.77;;;18.30;99.90;;;;;;5048238;28;20276;-63
2022/10/19 11:33:07;;;;;;;2.43;2.33;;;18.40;99.90;;;;;;5053850;28;20262;-63
2022/10/19 11:35:51;;;;;;;2.60;2.50;;;18.60;99.90;;;;;;5054090;28;20283;-62
2022/10/19 11:38:40;;;;;;;3.03;2.77;;;18.70;99.90;;;;;;5053840;28;20218;-60
2022/10/19 11:41:20;;;;;;;3.20;3.00;;;18.90;99.90;;;;;;5054136;28;20204;-61
2022/10/19 11:44:06;;;;;;;3.03;2.87;;;18.90;99.90;;;;;;5047090;28;20470;-63
2022/10/19 11:46:40;;;;;;;2.40;2.30;;;19.00;99.90;;;;;;5044042;28;20203;-61
2022/10/19 11:49:30;;;;;;;2.80;2.60;;;19.00;99.90;;;;;;5053545;28;20216;-61
2022/10/19 11:52:01;;;;;;;2.80;2.70;;;19.10;99.90;;;;;;5050045;28;20226;-61
2022/10/19 11:54:40;;;;;;;3.10;3.00;;;19.10;99.90;;;;;;5053091;28;20200;-60
2022/10/19 11:57:13;;;;;;;2.97;2.77;;;19.10;99.90;;;;;;5053970;28;20567;-61
2022/10/19 12:00:06;;;;;;;3.10;2.90;;;19.20;99.90;;;;;;5053883;28;20696;-61
2022/10/19 12:02:55;;;;;;;2.85;2.65;;;19.30;99.90;;;;;;5043464;28;20220;-62
2022/10/19 12:05:28;;;;;;;2.30;2.20;;;19.40;99.90;;;;;;5047332;28;20728;-61
2022/10/19 12:08:06;;;;;;;2.37;2.27;;;19.50;99.90;;;;;;5056493;28;20688;-62
2022/10/19 12:10:44;;;;;;;2.60;2.50;;;19.60;99.90;;;;;;5048100;28;20592;-60
2022/10/19 12:13:16;;;;;;;2.23;2.13;;;19.60;99.90;;;;;;5053176;28;20254;-61
2022/10/19 12:15:46;;;;;;;2.50;2.40;;;19.70;99.90;;;;;;5053608;28;20291;-62
2022/10/19 12:18:20;;;;;;;2.50;2.30;;;19.70;99.90;;;;;;5053579;28;20202;-62
2022/10/19 12:20:49;;;;;;;2.60;2.40;;;19.70;99.90;;;;;;5053667;28;20211;-62
2022/10/19 12:23:31;;;;;;;2.30;2.20;;;19.90;99.90;;;;;;5053575;28;20247;-64
2022/10/19 12:26:03;;;;;;;2.40;2.30;;;20.10;99.90;;;;;;5054857;28;20215;-64
2022/10/19 12:28:32;;;;;;;2.20;2.10;;;20.20;99.90;;;;;;5053016;28;20210;-61
2022/10/19 12:31:01;;;;;;;2.10;2.00;;;20.10;99.90;;;;;;5052335;28;20196;-61
2022/10/19 12:33:37;;;;;;;2.10;2.00;;;20.30;99.90;;;;;;5046093;28;20219;-63
2022/10/19 12:36:15;;;;;;;1.90;1.80;;;20.50;99.90;;;;;;5054595;28;20235;-63
2022/10/19 12:38:52;;;;;;;2.10;2.00;;;20.60;99.90;;;;;;5062669;28;20223;-60
2022/10/19 12:41:26;;;;;;;2.00;1.90;;;20.70;99.90;;;;;;5054461;28;20550;-62
2022/10/19 12:44:06;;;;;;;1.60;1.60;;;20.70;99.90;;;;;;5050070;28;20228;-63
2022/10/19 12:46:40;;;;;;;1.40;1.40;;;20.70;99.90;;;;;;5053542;28;20254;-60
2022/10/19 12:49:37;;;;;;;1.60;1.50;;;20.60;99.90;;;;;;5057920;28;20212;-63
2022/10/19 12:52:06;;;;;;;1.50;1.40;;;20.60;99.90;;;;;;5060752;28;20648;-62
2022/10/19 12:54:36;;;;;;;1.83;1.73;;;20.50;99.90;;;;;;5057996;28;20201;-62
2022/10/19 12:57:24;;;;;;;1.70;1.60;;;20.50;99.90;;;;;;5060031;28;20214;-61
2022/10/19 13:00:00;;;;;;;1.60;1.50;;;20.50;99.90;;;;;;5054297;28;20238;-62
2022/10/19 13:02:31;;;;;;;1.63;1.40;;;20.60;99.90;;;;;;5045117;28;20290;-60
2022/10/19 13:04:58;;;;;;;1.47;1.47;;;20.70;99.90;;;;;;5052041;28;20207;-63
2022/10/19 13:07:27;;;;;;;1.60;1.50;;;20.70;99.90;;;;;;5051688;28;20208;-63
2022/10/19 13:10:02;;;;;;;1.93;1.83;;;20.80;99.90;;;;;;5051975;28;20204;-63
2022/10/19 13:12:43;;;;;;;1.40;1.37;;;20.90;99.90;;;;;;5047991;28;20219;-62
2022/10/19 13:15:48;;;;;;;1.27;1.27;;;21.00;99.90;;;;;;5062523;28;20686;-65
2022/10/19 13:19:06;;;;;;;1.70;1.60;;;21.10;99.90;;;;;;5051400;28;21243;-62
2022/10/19 13:22:18;;;;;;;1.60;1.50;;;21.20;99.90;;;;;;5048345;28;20254;-61
2022/10/19 13:25:25;;;;;;;1.50;1.50;;;21.30;99.90;;;;;;5009512;28;20234;-61
2022/10/19 13:27:53;;;;;;;1.53;1.43;;;21.30;99.90;;;;;;5049130;28;20291;-63
2022/10/19 13:31:00;;;;;;;1.57;1.47;;;21.30;99.90;;;;;;5052492;28;20230;-65